Time;durP1;ratioP1;P1;durP2;ratioP2;P2;SDS_P1;SDS_P2;PMS_P1;PMS_P2;Temp;Humidity;BMP_temperature;BMP_pressure;BME280_temperature;BME280_humidity;BME280_pressure;Samples;Min_cycle;Max_cycle;Signal;HPM_P1;HPM_P2
2022/09/21 00:01:19;;;;;;;;;;;6.20;99.90;;;;;;5067690;28;20053;-83
2022/09/21 00:03:46;;;;;;;0.70;0.70;;;6.20;99.90;;;;;;5072945;28;19966;-86
2022/09/21 00:06:15;;;;;;;0.52;0.52;;;6.10;99.90;;;;;;5074505;28;20064;-86
2022/09/21 00:08:42;;;;;;;0.60;0.60;;;6.20;99.90;;;;;;5072182;28;20048;-84
2022/09/21 00:11:16;;;;;;;0.50;0.50;;;6.20;99.90;;;;;;5054549;28;20041;-84
2022/09/21 00:13:44;;;;;;;0.70;0.70;;;6.20;99.90;;;;;;5073083;28;20390;-85
2022/09/21 00:16:10;;;;;;;0.50;0.50;;;6.20;99.90;;;;;;5058611;28;20032;-85
2022/09/21 00:18:36;;;;;;;0.50;0.50;;;6.10;99.90;;;;;;5047524;28;20486;-87
2022/09/21 00:21:06;;;;;;;;;;;6.10;99.90;;;;;;5049120;28;20036;-87
2022/09/21 00:23:34;;;;;;;0.60;0.60;;;6.00;99.90;;;;;;5077951;28;20057;-86
2022/09/21 00:26:23;;;;;;;0.43;0.43;;;6.00;99.90;;;;;;5051592;28;20047;-85
2022/09/21 00:28:58;;;;;;;0.50;0.50;;;6.00;99.90;;;;;;5075547;28;20394;-85
2022/09/21 00:31:26;;;;;;;0.70;0.70;;;5.90;99.90;;;;;;5063759;28;20355;-86
2022/09/21 00:33:57;;;;;;;0.60;0.60;;;5.90;99.90;;;;;;5083945;28;20036;-87
2022/09/21 00:36:24;;;;;;;0.50;0.50;;;5.90;99.90;;;;;;5049265;28;20037;-86
2022/09/21 00:38:56;;;;;;;0.60;0.60;;;6.00;99.90;;;;;;5060197;28;20062;-86
2022/09/21 00:41:23;;;;;;;0.60;0.60;;;6.00;99.90;;;;;;5070384;28;20111;-87
2022/09/21 00:44:14;;;;;;;0.60;0.60;;;5.90;99.90;;;;;;5068893;28;20504;-88
2022/09/21 00:46:41;;;;;;;0.45;0.45;;;5.90;99.90;;;;;;5071329;28;20097;-87
2022/09/21 00:49:07;;;;;;;0.50;0.50;;;6.00;99.90;;;;;;5048303;28;20045;-87
2022/09/21 00:51:34;;;;;;;0.60;0.60;;;6.00;99.90;;;;;;5063253;28;20048;-86
2022/09/21 00:54:06;;;;;;;0.60;0.60;;;5.90;99.90;;;;;;5056736;28;20047;-87
2022/09/21 00:56:35;;;;;;;0.50;0.50;;;5.80;99.90;;;;;;5067526;28;20490;-86
2022/09/21 00:59:01;;;;;;;0.60;0.60;;;5.80;99.90;;;;;;5064679;28;20037;-88
2022/09/21 01:01:27;;;;;;;0.60;0.60;;;5.80;99.90;;;;;;5051942;28;20494;-86
2022/09/21 01:03:55;;;;;;;0.60;0.60;;;5.80;99.90;;;;;;5033039;28;20491;-88
2022/09/21 01:06:21;;;;;;;0.57;0.57;;;5.70;99.90;;;;;;5062272;28;20063;-88
2022/09/21 01:08:52;;;;;;;0.50;0.50;;;5.70;99.90;;;;;;5062874;28;20486;-85
2022/09/21 01:11:32;;;;;;;0.60;0.60;;;5.80;99.90;;;;;;5070232;28;20123;-87
2022/09/21 01:14:45;;;;;;;0.60;0.60;;;5.80;99.90;;;;;;5070007;28;20130;-87
2022/09/21 01:17:24;;;;;;;0.50;0.50;;;5.90;99.90;;;;;;5038831;28;20494;-85
2022/09/21 01:20:02;;;;;;;0.60;0.60;;;5.90;99.90;;;;;;5045205;28;20075;-87
2022/09/21 01:22:55;;;;;;;0.40;0.40;;;6.20;99.90;;;;;;5061658;28;20695;-86
2022/09/21 01:25:34;;;;;;;0.85;0.85;;;6.40;99.90;;;;;;5064867;28;20115;-87
2022/09/21 01:28:10;;;;;;;0.50;0.50;;;6.40;99.90;;;;;;5075296;28;20040;-87
2022/09/21 01:30:40;;;;;;;;;;;6.40;99.90;;;;;;5079453;28;20521;-87
2022/09/21 01:33:13;;;;;;;0.52;0.52;;;6.40;99.90;;;;;;5039225;28;19923;-88
2022/09/21 01:35:55;;;;;;;0.40;0.40;;;6.40;99.90;;;;;;5054708;28;20097;-88
2022/09/21 01:38:50;;;;;;;0.60;0.60;;;6.40;99.90;;;;;;5047525;28;20099;-90
2022/09/21 01:41:23;;;;;;;0.82;0.82;;;6.50;99.90;;;;;;5050591;28;20045;-87
2022/09/21 01:43:55;;;;;;;0.50;0.50;;;6.60;99.90;;;;;;5054933;28;20082;-87
2022/09/21 01:46:25;;;;;;;0.60;0.60;;;6.60;99.90;;;;;;5045371;28;20040;-88
2022/09/21 01:48:59;;;;;;;0.63;0.63;;;6.60;99.90;;;;;;5053779;28;20174;-88
2022/09/21 01:51:27;;;;;;;0.60;0.60;;;6.60;99.90;;;;;;5051894;28;20398;-87
2022/09/21 01:54:02;;;;;;;0.65;0.65;;;6.50;99.90;;;;;;5058594;28;20052;-87
2022/09/21 01:56:38;;;;;;;0.50;0.50;;;6.30;99.90;;;;;;5046295;28;20036;-88
2022/09/21 01:59:18;;;;;;;0.50;0.50;;;6.20;99.90;;;;;;5073549;28;20055;-86
2022/09/21 02:01:52;;;;;;;0.60;0.60;;;6.10;99.90;;;;;;5065482;28;20054;-89
2022/09/21 02:04:18;;;;;;;0.50;0.50;;;6.00;99.90;;;;;;5077412;28;20067;-87
2022/09/21 02:06:46;;;;;;;0.50;0.50;;;5.90;99.90;;;;;;5053044;28;20135;-86
2022/09/21 02:09:13;;;;;;;0.60;0.60;;;5.80;99.90;;;;;;5058475;28;20058;-88
2022/09/21 02:11:42;;;;;;;0.50;0.50;;;5.80;99.90;;;;;;5065158;28;20371;-87
2022/09/21 02:14:19;;;;;;;0.60;0.60;;;5.80;99.90;;;;;;5047944;28;20125;-86
2022/09/21 02:17:19;;;;;;;0.63;0.63;;;5.70;99.90;;;;;;5078794;28;20036;-86
2022/09/21 02:20:08;;;;;;;0.50;0.50;;;5.70;99.90;;;;;;5090233;28;20422;-88
2022/09/21 02:23:11;;;;;;;0.63;0.63;;;5.70;99.90;;;;;;5072949;28;20044;-88
2022/09/21 02:26:03;;;;;;;0.57;0.57;;;5.70;99.90;;;;;;5047704;28;20092;-88
2022/09/21 02:28:51;;;;;;;0.70;0.70;;;5.60;99.90;;;;;;5061699;28;20063;-88
2022/09/21 02:31:46;;;;;;;0.57;0.57;;;5.60;99.90;;;;;;5068275;28;20048;-86
2022/09/21 02:34:20;;;;;;;0.70;0.70;;;5.60;99.90;;;;;;5060483;28;20044;-88
2022/09/21 02:37:01;;;;;;;0.70;0.70;;;5.50;99.90;;;;;;5075706;28;20071;-88
2022/09/21 02:39:39;;;;;;;0.60;0.60;;;5.50;99.90;;;;;;5069146;28;20597;-87
2022/09/21 02:42:15;;;;;;;0.60;0.60;;;5.40;99.90;;;;;;5065001;28;20040;-86
2022/09/21 02:44:59;;;;;;;0.63;0.63;;;5.40;99.90;;;;;;5067833;28;20098;-87
2022/09/21 02:47:36;;;;;;;0.70;0.70;;;5.40;99.90;;;;;;5075069;28;20040;-88
2022/09/21 02:50:19;;;;;;;0.60;0.60;;;5.50;99.90;;;;;;5068205;28;20489;-87
2022/09/21 02:52:45;;;;;;;0.60;0.60;;;5.50;99.90;;;;;;5054274;28;20056;-87
2022/09/21 02:55:13;;;;;;;0.70;0.70;;;5.70;99.90;;;;;;5070829;28;20033;-88
2022/09/21 02:57:40;;;;;;;0.68;0.68;;;6.30;99.90;;;;;;5056833;28;20394;-87
2022/09/21 03:00:06;;;;;;;0.52;0.52;;;5.60;99.90;;;;;;5072419;28;20132;-86
2022/09/21 03:02:41;;;;;;;0.55;0.55;;;5.30;99.90;;;;;;5071903;28;20044;-87
2022/09/21 03:05:08;;;;;;;0.60;0.60;;;5.30;99.90;;;;;;5072327;28;20040;-87
2022/09/21 03:07:34;;;;;;;5.95;1.10;;;5.30;99.90;;;;;;5055722;28;20083;-87
2022/09/21 03:10:00;;;;;;;0.50;0.50;;;5.30;99.90;;;;;;5051832;28;20040;-88
2022/09/21 03:12:25;;;;;;;0.60;0.60;;;5.30;99.90;;;;;;5081617;28;20044;-88
2022/09/21 03:14:52;;;;;;;0.50;0.50;;;5.30;99.90;;;;;;5076115;28;20036;-86
2022/09/21 03:17:18;;;;;;;0.57;0.57;;;5.30;99.90;;;;;;5038878;28;20032;-86
2022/09/21 03:19:43;;;;;;;;;;;6.60;99.90;;;;;;5039411;28;20036;-85
2022/09/21 03:22:09;;;;;;;0.47;0.47;;;5.30;99.90;;;;;;5072937;28;19927;-84
2022/09/21 03:24:44;;;;;;;0.40;0.40;;;5.20;99.90;;;;;;5058290;28;20445;-86
2022/09/21 03:27:10;;;;;;;0.57;0.57;;;5.20;99.90;;;;;;5053376;28;20494;-87
2022/09/21 03:29:35;;;;;;;0.43;0.43;;;5.20;99.90;;;;;;5067852;28;20041;-86
2022/09/21 03:32:04;;;;;;;0.60;0.60;;;5.20;99.90;;;;;;5037582;28;20056;-86
2022/09/21 03:34:36;;;;;;;0.60;0.60;;;5.20;99.90;;;;;;5067934;28;20398;-89
2022/09/21 03:37:07;;;;;;;0.50;0.50;;;6.10;99.90;;;;;;5059095;28;20033;-87
2022/09/21 03:39:33;;;;;;;0.50;0.50;;;6.20;99.90;;;;;;5061940;28;20044;-87
2022/09/21 03:41:59;;;;;;;;;;;5.20;99.90;;;;;;5061896;28;20098;-86
2022/09/21 03:44:25;;;;;;;0.50;0.50;;;5.40;99.90;;;;;;5073935;28;20308;-90
2022/09/21 03:46:52;;;;;;;0.47;0.47;;;5.40;99.90;;;;;;5078433;28;20041;-88
2022/09/21 03:49:19;;;;;;;0.45;0.45;;;5.50;99.90;;;;;;5057350;28;20509;-89
2022/09/21 03:51:44;;;;;;;0.50;0.50;;;6.80;99.90;;;;;;5072663;28;20558;-85
2022/09/21 03:54:11;;;;;;;0.68;0.68;;;5.50;99.90;;;;;;5071304;28;20043;-86
2022/09/21 03:56:37;;;;;;;0.70;0.70;;;6.30;99.90;;;;;;5078050;28;20043;-87
2022/09/21 03:59:03;;;;;;;0.50;0.50;;;5.40;99.90;;;;;;5060133;28;20036;-87
2022/09/21 04:01:29;;;;;;;0.50;0.50;;;5.40;99.90;;;;;;5055888;28;20053;-86
2022/09/21 04:03:54;;;;;;;0.57;0.57;;;5.40;99.90;;;;;;5064772;28;20155;-87
2022/09/21 04:06:20;;;;;;;0.60;0.60;;;5.40;99.90;;;;;;5063781;28;20510;-88
2022/09/21 04:08:46;;;;;;;0.60;0.60;;;5.30;99.90;;;;;;5060031;28;20106;-88
2022/09/21 04:11:17;;;;;;;0.60;0.60;;;5.40;99.90;;;;;;5054354;28;20068;-88
2022/09/21 04:13:57;;;;;;;0.55;0.55;;;6.00;99.90;;;;;;5076208;28;20117;-87
2022/09/21 04:16:24;;;;;;;0.43;0.43;;;5.40;99.90;;;;;;5048447;28;20395;-89
2022/09/21 04:18:50;;;;;;;0.47;0.47;;;6.10;99.90;;;;;;5051895;28;20028;-90
2022/09/21 04:21:16;;;;;;;;;;;5.80;99.90;;;;;;5052390;28;20069;-88
2022/09/21 04:23:42;;;;;;;0.50;0.50;;;5.10;99.90;;;;;;5057532;28;19927;-88
2022/09/21 04:26:35;;;;;;;0.60;0.60;;;5.10;99.90;;;;;;5051465;28;20048;-88
2022/09/21 04:29:02;;;;;;;0.45;0.45;;;5.00;99.90;;;;;;5070968;28;20083;-87
2022/09/21 04:31:29;;;;;;;0.60;0.60;;;5.00;99.90;;;;;;5051545;28;20039;-87
2022/09/21 04:33:57;;;;;;;0.52;0.52;;;6.30;99.90;;;;;;5055025;28;20112;-89
2022/09/21 04:36:24;;;;;;;0.50;0.50;;;5.00;99.90;;;;;;5055921;28;20402;-88
2022/09/21 04:38:50;;;;;;;0.40;0.40;;;5.00;99.90;;;;;;5070334;28;20501;-87
2022/09/21 04:41:18;;;;;;;;;;;5.00;99.90;;;;;;5061048;28;20072;-85
2022/09/21 04:43:44;;;;;;;;;;;4.90;99.90;;;;;;5055216;28;19920;-88
2022/09/21 04:46:12;;;;;;;0.50;0.50;;;4.90;99.90;;;;;;5073019;28;19916;-92
2022/09/21 04:48:41;;;;;;;0.57;0.57;;;4.90;99.90;;;;;;5065864;28;20111;-88
2022/09/21 04:51:08;;;;;;;0.60;0.60;;;4.80;99.90;;;;;;5053541;28;20581;-88
2022/09/21 04:53:36;;;;;;;0.40;0.40;;;6.20;99.90;;;;;;5055505;28;20060;-88
2022/09/21 04:56:03;;;;;;;0.63;0.63;;;4.80;99.90;;;;;;5072322;28;20152;-87
2022/09/21 04:58:29;;;;;;;0.50;0.50;;;5.20;99.90;;;;;;5055760;28;20553;-89
2022/09/21 05:00:55;;;;;;;0.65;0.65;;;6.50;99.90;;;;;;5056798;28;20044;-89
2022/09/21 05:03:25;;;;;;;0.50;0.50;;;4.70;99.90;;;;;;5039126;28;20036;-91
2022/09/21 05:05:54;;;;;;;0.50;0.50;;;4.70;99.90;;;;;;5040188;28;20045;-91
2022/09/21 05:10:01;;;;;;;0.52;0.52;;;5.00;99.90;;;;;;5041039;28;20087;-88
2022/09/21 05:11:08;;;;;;;0.55;0.55;;;6.00;99.90;;;;;;5071039;28;20048;-90
2022/09/21 05:13:36;;;;;;;0.50;0.50;;;4.70;99.90;;;;;;5053399;28;20519;-88
2022/09/21 05:16:02;;;;;;;0.50;0.50;;;4.00;99.90;;;;;;5016573;28;20029;-88
2022/09/21 05:18:28;;;;;;;0.60;0.60;;;4.60;99.90;;;;;;5053420;28;20045;-89
2022/09/21 05:20:59;;;;;;;0.60;0.60;;;4.70;99.90;;;;;;5057023;28;20080;-86
2022/09/21 05:23:26;;;;;;;0.60;0.60;;;4.60;99.90;;;;;;5061325;28;20060;-89
2022/09/21 05:25:51;;;;;;;0.50;0.50;;;5.60;99.90;;;;;;5065676;28;20177;-89
2022/09/21 05:28:18;;;;;;;0.60;0.60;;;5.00;99.90;;;;;;5033507;28;20028;-90
2022/09/21 05:30:56;;;;;;;0.55;0.55;;;4.60;99.90;;;;;;5067519;28;20053;-89
2022/09/21 05:33:26;;;;;;;0.50;0.50;;;4.60;99.90;;;;;;5052319;28;20043;-86
2022/09/21 05:36:28;;;;;;;0.50;0.50;;;4.80;99.90;;;;;;5094591;28;20059;-89
2022/09/21 05:38:55;;;;;;;0.50;0.50;;;4.60;99.90;;;;;;5054838;28;20051;-90
2022/09/21 05:41:22;;;;;;;0.50;0.50;;;4.60;99.90;;;;;;5039320;28;20526;-87
2022/09/21 05:43:48;;;;;;;0.70;0.70;;;4.60;99.90;;;;;;5085751;28;20376;-92
2022/09/21 05:46:30;;;;;;;0.60;0.60;;;4.70;99.90;;;;;;5074729;28;20138;-88
2022/09/21 05:49:20;;;;;;;0.70;0.70;;;4.70;99.90;;;;;;5056572;28;20036;-91
2022/09/21 05:52:31;;;;;;;0.63;0.63;;;4.70;99.90;;;;;;5072041;28;20044;-91
2022/09/21 05:55:08;;;;;;;0.50;0.50;;;4.70;99.90;;;;;;5059586;28;20124;-90
2022/09/21 05:57:54;;;;;;;0.52;0.52;;;4.80;99.90;;;;;;5060460;28;20040;-90
2022/09/21 06:00:21;;;;;;;0.60;0.60;;;4.80;99.90;;;;;;5054729;28;20045;-88
2022/09/21 06:03:22;;;;;;;0.50;0.50;;;4.90;99.90;;;;;;5056341;28;20044;-91
2022/09/21 06:05:48;;;;;;;0.50;0.50;;;4.90;99.90;;;;;;5064953;28;20049;-90
2022/09/21 06:08:15;;;;;;;0.55;0.55;;;5.30;99.90;;;;;;5057804;28;20055;-89
2022/09/21 06:10:41;;;;;;;0.95;0.95;;;5.60;99.90;;;;;;5075605;28;20083;-89
2022/09/21 06:13:07;;;;;;;0.60;0.60;;;5.30;99.90;;;;;;5077237;28;20367;-88
2022/09/21 06:15:37;;;;;;;0.52;0.52;;;5.30;99.90;;;;;;5044324;28;20036;-88
2022/09/21 06:18:04;;;;;;;0.40;0.40;;;5.30;99.90;;;;;;5079128;28;20119;-86
2022/09/21 06:20:30;;;;;;;0.50;0.50;;;5.40;99.90;;;;;;5086065;28;20128;-88
2022/09/21 06:23:04;;;;;;;0.60;0.60;;;5.60;99.90;;;;;;5074018;28;20100;-88
2022/09/21 06:25:30;;;;;;;0.60;0.60;;;5.50;99.90;;;;;;5073377;28;20324;-88
2022/09/21 06:28:09;;;;;;;0.50;0.50;;;6.00;99.90;;;;;;5056021;28;20041;-87
2022/09/21 06:30:35;;;;;;;0.52;0.52;;;5.80;99.90;;;;;;5062251;28;20068;-88
2022/09/21 06:33:02;;;;;;;0.40;0.40;;;6.00;99.90;;;;;;5079116;28;20040;-91
2022/09/21 06:35:29;;;;;;;0.50;0.50;;;7.50;99.90;;;;;;5055196;28;20033;-88
2022/09/21 06:38:04;;;;;;;0.65;0.65;;;6.50;99.90;;;;;;5071536;28;20075;-87
2022/09/21 06:40:31;;;;;;;0.50;0.50;;;6.70;99.90;;;;;;5074859;28;20044;-87
2022/09/21 06:43:02;;;;;;;0.50;0.50;;;7.00;99.90;;;;;;5060530;28;20080;-86
2022/09/21 06:45:29;;;;;;;0.50;0.50;;;7.10;99.90;;;;;;5065878;28;20124;-86
2022/09/21 06:47:55;;;;;;;0.57;0.57;;;7.30;99.90;;;;;;5079317;28;20605;-85
2022/09/21 06:50:22;;;;;;;0.47;0.47;;;7.40;99.90;;;;;;5063792;28;20041;-86
2022/09/21 06:52:47;;;;;;;0.60;0.60;;;7.60;99.90;;;;;;5072775;28;20044;-88
2022/09/21 06:55:14;;;;;;;0.52;0.52;;;7.70;99.90;;;;;;5073315;28;20047;-87
2022/09/21 06:57:39;;;;;;;;;;;7.90;99.90;;;;;;5022347;28;20445;-87
2022/09/21 07:00:08;;;;;;;0.60;0.60;;;8.00;99.90;;;;;;5079868;28;19916;-88
2022/09/21 07:02:34;;;;;;;0.40;0.40;;;8.20;99.90;;;;;;5071581;28;20490;-87
2022/09/21 07:05:00;;;;;;;0.60;0.60;;;8.30;99.90;;;;;;5052618;28;20036;-88
2022/09/21 07:07:30;;;;;;;0.40;0.40;;;8.40;99.90;;;;;;5081044;28;20059;-88
2022/09/21 07:09:58;;;;;;;0.52;0.52;;;8.50;99.90;;;;;;5069367;28;20098;-88
2022/09/21 07:12:25;;;;;;;0.40;0.40;;;8.70;99.90;;;;;;5089888;28;20044;-87
2022/09/21 07:14:51;;;;;;;0.43;0.43;;;9.20;99.90;;;;;;5086915;28;20036;-88
2022/09/21 07:17:16;;;;;;;;;;;9.00;99.90;;;;;;5062833;28;20344;-87
2022/09/21 07:19:42;;;;;;;0.40;0.40;;;9.10;99.90;;;;;;5054053;28;19970;-86
2022/09/21 07:22:08;;;;;;;0.28;0.28;;;9.30;99.90;;;;;;5073265;28;20071;-88
2022/09/21 07:24:34;;;;;;;0.40;0.40;;;9.40;99.90;;;;;;5052302;28;20135;-88
2022/09/21 07:27:01;;;;;;;0.50;0.50;;;9.40;99.90;;;;;;5046187;28;20035;-88
2022/09/21 07:29:26;;;;;;;0.40;0.40;;;9.50;99.90;;;;;;5074678;28;20053;-88
2022/09/21 07:31:52;;;;;;;0.40;0.40;;;9.70;99.90;;;;;;5072556;28;20143;-88
2022/09/21 07:34:18;;;;;;;0.30;0.30;;;9.80;99.90;;;;;;5057160;28;20086;-85
2022/09/21 07:36:43;;;;;;;0.40;0.40;;;9.90;99.90;;;;;;5075625;28;20040;-88
2022/09/21 07:39:09;;;;;;;3.20;3.00;;;10.00;99.90;;;;;;5060659;28;20373;-88
2022/09/21 07:41:36;;;;;;;0.50;0.50;;;10.10;99.90;;;;;;5067739;28;20048;-86
2022/09/21 07:44:02;;;;;;;0.20;0.20;;;10.10;99.90;;;;;;5073062;28;20050;-87
2022/09/21 07:46:28;;;;;;;0.40;0.40;;;10.20;99.90;;;;;;5055766;28;20049;-88
2022/09/21 07:48:55;;;;;;;0.30;0.30;;;10.30;99.90;;;;;;5071263;28;20032;-88
2022/09/21 07:51:22;;;;;;;0.40;0.40;;;10.40;99.90;;;;;;5081276;28;20115;-87
2022/09/21 07:53:55;;;;;;;0.30;0.30;;;10.50;99.90;;;;;;5047408;28;20048;-87
2022/09/21 07:56:21;;;;;;;0.85;0.85;;;10.60;99.90;;;;;;5067152;28;20057;-87
2022/09/21 07:59:06;;;;;;;0.30;0.30;;;10.60;99.90;;;;;;5071636;28;20359;-87
2022/09/21 08:01:37;;;;;;;0.40;0.40;;;10.80;99.90;;;;;;5061317;28;20040;-87
2022/09/21 08:04:05;;;;;;;0.35;0.35;;;10.90;99.90;;;;;;5072557;28;20033;-87
2022/09/21 08:06:32;;;;;;;0.50;0.50;;;11.00;99.90;;;;;;5074048;28;20063;-87
2022/09/21 08:09:02;;;;;;;0.30;0.30;;;11.10;99.90;;;;;;5088479;28;20117;-87
2022/09/21 08:11:30;;;;;;;0.30;0.30;;;11.30;99.90;;;;;;5076554;28;20037;-87
2022/09/21 08:13:58;;;;;;;1.25;1.25;;;11.40;99.90;;;;;;5063684;28;20151;-86
2022/09/21 08:16:25;;;;;;;0.47;0.47;;;11.50;99.90;;;;;;5064955;28;20040;-88
2022/09/21 08:18:51;;;;;;;0.30;0.30;;;11.70;99.90;;;;;;5056950;28;20492;-87
2022/09/21 08:21:19;;;;;;;0.63;0.63;;;10.70;99.90;;;;;;5071751;28;20071;-88
2022/09/21 08:23:45;;;;;;;0.32;0.32;;;11.90;99.90;;;;;;5063579;28;20131;-85
2022/09/21 08:26:19;;;;;;;0.30;0.30;;;12.10;99.90;;;;;;5072073;28;20036;-87
2022/09/21 08:28:50;;;;;;;0.25;0.25;;;12.20;99.90;;;;;;5073648;28;20475;-86
2022/09/21 08:31:20;;;;;;;0.30;0.30;;;12.40;99.90;;;;;;5083258;28;20044;-89
2022/09/21 08:33:48;;;;;;;1.65;1.50;;;12.50;99.90;;;;;;5054603;28;20089;-87
2022/09/21 08:36:14;;;;;;;0.30;0.30;;;12.60;99.90;;;;;;5046490;28;20471;-88
2022/09/21 08:38:40;;;;;;;0.30;0.30;;;12.80;99.90;;;;;;5062103;28;20043;-87
2022/09/21 08:41:19;;;;;;;0.30;0.30;;;12.90;99.90;;;;;;5069315;28;20048;-87
2022/09/21 08:43:53;;;;;;;0.30;0.30;;;13.10;99.90;;;;;;5060535;28;20078;-87
2022/09/21 08:46:26;;;;;;;0.30;0.30;;;13.10;99.90;;;;;;5067589;28;20053;-88
2022/09/21 08:49:06;;;;;;;0.30;0.30;;;13.20;99.90;;;;;;5054982;28;20070;-89
2022/09/21 08:51:40;;;;;;;0.30;0.30;;;13.30;99.90;;;;;;5063262;28;20367;-86
2022/09/21 08:54:19;;;;;;;0.60;0.60;;;13.40;99.90;;;;;;5060602;28;20486;-87
2022/09/21 08:56:46;;;;;;;0.30;0.30;;;13.50;99.90;;;;;;5070815;28;20390;-87
2022/09/21 08:59:14;;;;;;;0.50;0.50;;;13.60;99.90;;;;;;5054332;28;20557;-87
2022/09/21 09:01:52;;;;;;;0.30;0.30;;;13.70;99.90;;;;;;5054580;28;20041;-87
2022/09/21 09:04:50;;;;;;;0.30;0.30;;;13.70;99.90;;;;;;5062889;28;20052;-85
2022/09/21 09:07:25;;;;;;;0.50;0.50;;;13.80;99.90;;;;;;5060952;28;20130;-85
2022/09/21 09:10:12;;;;;;;0.30;0.30;;;13.90;99.90;;;;;;5054658;28;20051;-88
2022/09/21 09:13:08;;;;;;;0.40;0.40;;;13.90;99.90;;;;;;5103108;28;20043;-85
2022/09/21 09:15:36;;;;;;;0.40;0.40;;;14.20;99.90;;;;;;5077639;28;20044;-85
2022/09/21 09:18:30;;;;;;;0.30;0.30;;;14.10;99.90;;;;;;5059668;28;20041;-87
2022/09/21 09:21:00;;;;;;;0.40;0.40;;;14.10;99.90;;;;;;5065070;28;20124;-86
2022/09/21 09:23:33;;;;;;;0.30;0.30;;;14.10;99.90;;;;;;5046162;28;20048;-86
2022/09/21 09:26:03;;;;;;;0.30;0.30;;;14.20;99.90;;;;;;5069912;28;20048;-86
2022/09/21 09:28:37;;;;;;;0.20;0.20;;;14.30;99.90;;;;;;5061921;28;20044;-86
2022/09/21 09:31:17;;;;;;;0.20;0.20;;;14.30;99.90;;;;;;5047645;28;20653;-86
2022/09/21 09:34:11;;;;;;;0.20;0.20;;;14.40;99.90;;;;;;5063388;28;20055;-87
2022/09/21 09:36:45;;;;;;;0.25;0.25;;;14.50;99.90;;;;;;5040212;28;20041;-88
2022/09/21 09:39:15;;;;;;;0.30;0.30;;;14.50;99.90;;;;;;5076512;28;20062;-87
2022/09/21 09:41:53;;;;;;;0.30;0.30;;;14.50;99.90;;;;;;5041600;28;20043;-90
2022/09/21 09:44:33;;;;;;;0.20;0.20;;;14.60;99.90;;;;;;5071619;28;20048;-88
2022/09/21 09:47:41;;;;;;;0.30;0.30;;;14.70;99.90;;;;;;5087481;28;20044;-88
2022/09/21 09:50:24;;;;;;;0.30;0.30;;;14.80;99.90;;;;;;5041678;28;20056;-87
2022/09/21 09:52:55;;;;;;;0.30;0.30;;;14.80;99.90;;;;;;5064306;28;20043;-87
2022/09/21 09:55:34;;;;;;;0.30;0.30;;;14.90;99.90;;;;;;5077856;28;20039;-87
2022/09/21 09:58:01;;;;;;;0.20;0.20;;;15.00;99.90;;;;;;5083297;28;20098;-88
2022/09/21 10:00:26;;;;;;;0.30;0.30;;;15.00;99.90;;;;;;5062196;28;20075;-89
2022/09/21 10:02:59;;;;;;;5.22;0.43;;;15.10;99.90;;;;;;5085387;28;20094;-87
2022/09/21 10:05:32;;;;;;;0.30;0.30;;;15.10;99.90;;;;;;5077206;28;20059;-87
2022/09/21 10:07:59;;;;;;;0.47;0.47;;;15.20;99.90;;;;;;5061762;28;20407;-88
2022/09/21 10:10:27;;;;;;;0.20;0.20;;;15.30;99.90;;;;;;5061295;28;20492;-87
2022/09/21 10:12:56;;;;;;;0.20;0.20;;;15.40;99.90;;;;;;5082161;28;20429;-86
2022/09/21 10:15:27;;;;;;;0.20;0.20;;;15.50;99.90;;;;;;5067211;28;20044;-87
2022/09/21 10:18:21;;;;;;;0.30;0.30;;;15.60;99.90;;;;;;5065305;28;20048;-88
2022/09/21 10:21:20;;;;;;;0.50;0.50;;;15.80;99.90;;;;;;5041997;28;20492;-87
2022/09/21 10:23:58;;;;;;;0.30;0.30;;;15.90;99.90;;;;;;5071580;28;20047;-87
2022/09/21 10:26:39;;;;;;;0.20;0.20;;;16.00;99.90;;;;;;5074767;28;20041;-87
2022/09/21 10:29:24;;;;;;;0.30;0.30;;;15.90;99.90;;;;;;5060301;28;20572;-87
2022/09/21 10:32:01;;;;;;;0.30;0.30;;;15.70;99.90;;;;;;5072691;28;20036;-86
2022/09/21 10:34:32;;;;;;;0.17;0.17;;;15.50;99.90;;;;;;5089347;28;20527;-86
2022/09/21 10:37:01;;;;;;;0.22;0.22;;;15.40;99.90;;;;;;5074345;28;20053;-87
2022/09/21 10:39:31;;;;;;;0.20;0.20;;;15.20;99.90;;;;;;5077779;28;20059;-86
2022/09/21 10:42:00;;;;;;;0.30;0.30;;;15.20;99.90;;;;;;5093389;28;20077;-87
2022/09/21 10:44:52;;;;;;;0.25;0.25;;;15.20;99.90;;;;;;5066074;28;20101;-87
2022/09/21 10:47:36;;;;;;;0.30;0.30;;;15.20;99.90;;;;;;5086738;28;20478;-89
2022/09/21 10:50:06;;;;;;;0.30;0.30;;;15.50;99.90;;;;;;5056093;28;20051;-88
2022/09/21 10:52:42;;;;;;;0.30;0.30;;;15.70;99.90;;;;;;5059944;28;20051;-87
2022/09/21 10:55:19;;;;;;;0.25;0.25;;;15.80;99.90;;;;;;5052678;28;20043;-87
2022/09/21 10:57:46;;;;;;;0.30;0.30;;;16.00;99.90;;;;;;5068189;28;20040;-88
2022/09/21 11:00:24;;;;;;;0.20;0.20;;;16.10;99.90;;;;;;5052966;28;20052;-89
2022/09/21 11:02:53;;;;;;;0.30;0.30;;;16.20;99.90;;;;;;5036960;28;20048;-87
2022/09/21 11:05:42;;;;;;;0.20;0.20;;;16.30;99.90;;;;;;5069971;28;20052;-87
2022/09/21 11:08:21;;;;;;;0.30;0.30;;;15.20;99.90;;;;;;5073223;28;20060;-86
2022/09/21 11:11:31;;;;;;;0.22;0.22;;;16.80;99.90;;;;;;5056198;28;20044;-85
2022/09/21 11:14:41;;;;;;;0.30;0.30;;;17.10;99.90;;;;;;5021138;28;20049;-88
2022/09/21 11:17:21;;;;;;;0.28;0.28;;;17.30;99.90;;;;;;5052239;28;20498;-89
2022/09/21 11:20:03;;;;;;;0.25;0.25;;;17.40;99.90;;;;;;5090192;28;20044;-88
2022/09/21 11:22:38;;;;;;;0.30;0.30;;;17.40;99.90;;;;;;5080970;28;20048;-89
2022/09/21 11:25:31;;;;;;;0.20;0.20;;;17.30;99.90;;;;;;5055894;28;20410;-89
2022/09/21 11:28:12;;;;;;;0.28;0.28;;;17.30;99.90;;;;;;5056137;28;20047;-87
2022/09/21 11:31:20;;;;;;;0.20;0.20;;;17.40;99.90;;;;;;5068933;28;20040;-90
2022/09/21 11:33:54;;;;;;;0.20;0.20;;;17.30;99.90;;;;;;5051270;28;20095;-87
2022/09/21 11:36:33;;;;;;;0.43;0.43;;;17.30;99.90;;;;;;5067787;28;20041;-88
2022/09/21 11:39:34;;;;;;;0.20;0.20;;;17.30;99.90;;;;;;5055687;28;20242;-88
2022/09/21 11:42:37;;;;;;;0.20;0.20;;;17.30;99.90;;;;;;5078381;28;20046;-88
2022/09/21 11:45:20;;;;;;;0.30;0.30;;;17.30;99.90;;;;;;5062758;28;20093;-88
2022/09/21 11:48:09;;;;;;;0.30;0.30;;;17.30;99.90;;;;;;5061770;28;20050;-88
2022/09/21 11:50:52;;;;;;;0.20;0.20;;;17.40;99.90;;;;;;5069720;28;20566;-88
2022/09/21 11:53:27;;;;;;;0.20;0.20;;;17.40;99.90;;;;;;5058706;28;20096;-87
2022/09/21 11:56:33;;;;;;;0.20;0.20;;;17.30;99.90;;;;;;5071225;28;20047;-89
2022/09/21 11:59:08;;;;;;;0.52;0.43;;;17.40;99.90;;;;;;5071148;28;20037;-89
2022/09/21 12:01:49;;;;;;;0.22;0.22;;;17.40;99.90;;;;;;5060807;28;20032;-88
2022/09/21 12:04:33;;;;;;;0.20;0.20;;;17.40;99.90;;;;;;5055828;28;20044;-89
2022/09/21 12:07:11;;;;;;;0.20;0.20;;;17.50;99.90;;;;;;5055458;28;20053;-88
2022/09/21 12:09:51;;;;;;;0.30;0.30;;;17.50;99.90;;;;;;5071715;28;20145;-88
2022/09/21 12:12:48;;;;;;;0.30;0.30;;;17.60;99.90;;;;;;5051820;28;20376;-87
2022/09/21 12:15:32;;;;;;;0.40;0.40;;;17.60;99.90;;;;;;5067822;28;20037;-89
2022/09/21 12:18:08;;;;;;;0.28;0.28;;;17.60;99.90;;;;;;5050498;28;20047;-89
2022/09/21 12:21:00;;;;;;;0.30;0.30;;;17.60;99.90;;;;;;5081406;28;20051;-88
2022/09/21 12:23:31;;;;;;;0.20;0.20;;;17.70;99.90;;;;;;5060666;28;20049;-87
2022/09/21 12:26:00;;;;;;;0.35;0.35;;;17.70;99.90;;;;;;5078852;28;20036;-88
2022/09/21 12:28:46;;;;;;;0.20;0.20;;;17.90;99.90;;;;;;5047336;28;20419;-89
2022/09/21 12:31:27;;;;;;;0.30;0.30;;;18.10;99.90;;;;;;5067913;28;20040;-89
2022/09/21 12:34:15;;;;;;;0.28;0.28;;;18.20;99.90;;;;;;5057970;28;20501;-88
2022/09/21 12:36:49;;;;;;;0.40;0.40;;;18.30;99.90;;;;;;5042822;28;20044;-87
2022/09/21 12:39:27;;;;;;;1.45;0.60;;;18.30;99.90;;;;;;5088136;28;20052;-87
2022/09/21 12:42:06;;;;;;;0.20;0.20;;;18.50;99.90;;;;;;5066991;28;20041;-85
2022/09/21 12:44:50;;;;;;;0.20;0.20;;;18.40;99.90;;;;;;5044386;28;20052;-86
2022/09/21 12:47:40;;;;;;;0.10;0.10;;;18.30;99.90;;;;;;5088098;28;20102;-88
2022/09/21 12:50:43;;;;;;;0.20;0.20;;;18.00;99.90;;;;;;5039240;28;20047;-87
2022/09/21 12:53:17;;;;;;;;;;;17.80;99.90;;;;;;5076390;28;20433;-88
2022/09/21 12:55:54;;;;;;;0.20;0.20;;;17.70;99.90;;;;;;5042462;28;19923;-86
2022/09/21 12:58:35;;;;;;;0.20;0.20;;;17.80;99.90;;;;;;5042862;28;20482;-87
2022/09/21 13:01:41;;;;;;;0.20;0.20;;;17.80;99.90;;;;;;5065339;28;20047;-88
2022/09/21 13:04:21;;;;;;;0.35;0.35;;;17.70;99.90;;;;;;5026172;28;20037;-87
2022/09/21 13:07:18;;;;;;;0.20;0.20;;;17.70;99.90;;;;;;5060604;28;20468;-88
2022/09/21 13:09:50;;;;;;;0.30;0.30;;;17.60;99.90;;;;;;5059617;28;20563;-88
2022/09/21 13:12:16;;;;;;;0.20;0.20;;;17.70;99.90;;;;;;5070917;28;20051;-90
2022/09/21 13:14:49;;;;;;;0.20;0.20;;;17.60;99.90;;;;;;5070642;28;20036;-88
2022/09/21 13:17:30;;;;;;;0.22;0.22;;;17.60;99.90;;;;;;5061878;28;20036;-87
2022/09/21 13:20:06;;;;;;;;;;;17.60;99.90;;;;;;5065658;28;20050;-88
2022/09/21 13:22:36;;;;;;;0.20;0.20;;;17.60;99.90;;;;;;5051052;28;19923;-87
2022/09/21 13:25:14;;;;;;;0.30;0.30;;;17.60;99.90;;;;;;5059372;28;20044;-87
2022/09/21 13:28:12;;;;;;;0.20;0.20;;;17.60;99.90;;;;;;5062729;28;20040;-88
2022/09/21 13:30:43;;;;;;;0.20;0.20;;;17.70;99.90;;;;;;5076530;28;20437;-87
2022/09/21 13:33:18;;;;;;;0.20;0.20;;;17.80;99.90;;;;;;5038542;28;20098;-88